Aérodrome :
LOGIN :

S'inscrire | Disclaimer

   EN    FR    IT 

 










Légende :    VFR   VFR Marginal   IFR   IFR Intensif   IFR Très Intensif
Visi : 
Plafond : 
>= 8 km
>= 3000ft
5 à 8 km
1000 à 3000 ft
1500m à 5 km
500 à 1000 ft
800 à 1500m
200 à 500 ft
< 800m
< 200 ft
Symboles :   Orages  Brouillard  Fortes neiges  Fortes précipitations  Vent > 20 kt
SIGMETs :   Divers  Orages  Givrage  Turbulence  Onde Orograph.  Cendres Volcan.







- Altitude de l'aérodrome : 485 ft
- Code IATA : QSA


LELL - Sabadell

DERNIER METAR :
  • 181830Z AUTO 02007KT 310V060 9999 -RA FEW014/// BKN019/// BKN025/// 12/11 Q1010

METARs EXPIRÉS :
  • 181800Z AUTO 03005KT 340V100 2000 +RA BR FEW009/// BKN019/// BKN028/// 11/11 Q1011
  • 181730Z AUTO 02006KT 340V050 9000 -RA BKN018/// BKN026/// OVC041/// 12/11 Q1011
  • 181700Z AUTO 01006KT 300V050 4800 RA BR SCT020/// SCT028/// BKN039/// 12/11 Q1011
  • 181630Z AUTO 02006KT 330V060 9999 -RA SCT024/// BKN057/// BKN070/// 12/11 Q1011
  • 181600Z 01006KT 300V050 6000 RA FEW012 SCT025 BKN045 12/11 Q1011

TAF TAF LELL
Valide du 18 à 15h jusqu'au 19 à 15h UTC


181400Z 1815/1915 03008KT 9999 SCT020 BKN040 TX14/1913Z TN08/1905Z
TEMPO 1815/1824 07015KT 3000 SHRA OVC020 FEW025TCU
Pas de NOTAMs connus pour ce terrain.
1 SIGMET publié pour la FIR Barcelona (LECB) :
 
Orages noyés dans la masse
LECB SIGMET 7 VALID 181800/182000 LEVA
LECB BARCELONA FIR/UIR EMBD TS OBS AT 1748Z W OF LINE N3809 W00028 - N3547 W00123 TOP FL380 MOV NE NC=



MET'MAP, la Météo Aéronautique d'un coup d'oeil ! - Copyright ORBIFLY Décembre 2007 - Disclaimer

ORBIFLY MET'MAP TEAM :

Programmation & Développement : Alexandra Zaïnal
Conception & Développement : Baudouin d'Aumeries
Co-Programmation & Développement : Marc-Olivier Méhu
Soutien technique & logistique : Manuel Goepfert

Contact : metmap@orbifly.com




SOURCES & CREDITS :

   NOAA